sensor_id;sensor_type;location;lat;lon;timestamp;P1;durP1;ratioP1;P2;durP2;ratioP2
15271;SDS011;7737;51.578;7.268;2024-01-30T00:02:22;7.57;;;6.85;;
15271;SDS011;7737;51.578;7.268;2024-01-30T00:04:49;8.50;;;7.25;;
15271;SDS011;7737;51.578;7.268;2024-01-30T00:07:16;8.02;;;7.22;;
15271;SDS011;7737;51.578;7.268;2024-01-30T00:09:43;8.70;;;6.90;;
15271;SDS011;7737;51.578;7.268;2024-01-30T00:12:12;8.52;;;7.57;;
15271;SDS011;7737;51.578;7.268;2024-01-30T00:14:40;8.68;;;7.78;;
15271;SDS011;7737;51.578;7.268;2024-01-30T00:17:08;8.65;;;7.40;;
15271;SDS011;7737;51.578;7.268;2024-01-30T00:19:34;9.85;;;7.95;;
15271;SDS011;7737;51.578;7.268;2024-01-30T00:22:00;8.60;;;7.63;;
15271;SDS011;7737;51.578;7.268;2024-01-30T00:24:27;8.15;;;7.22;;
15271;SDS011;7737;51.578;7.268;2024-01-30T00:26:54;9.40;;;7.88;;
15271;SDS011;7737;51.578;7.268;2024-01-30T00:29:20;9.77;;;7.68;;
15271;SDS011;7737;51.578;7.268;2024-01-30T00:31:48;10.15;;;7.60;;
15271;SDS011;7737;51.578;7.268;2024-01-30T00:34:14;10.52;;;8.07;;
15271;SDS011;7737;51.578;7.268;2024-01-30T00:36:41;9.18;;;7.85;;
15271;SDS011;7737;51.578;7.268;2024-01-30T00:39:07;10.23;;;7.90;;
15271;SDS011;7737;51.578;7.268;2024-01-30T00:41:36;11.23;;;7.90;;
15271;SDS011;7737;51.578;7.268;2024-01-30T00:44:02;10.07;;;7.85;;
15271;SDS011;7737;51.578;7.268;2024-01-30T00:46:29;10.63;;;8.02;;
15271;SDS011;7737;51.578;7.268;2024-01-30T00:48:55;11.52;;;7.55;;
15271;SDS011;7737;51.578;7.268;2024-01-30T00:51:22;9.45;;;7.70;;
15271;SDS011;7737;51.578;7.268;2024-01-30T00:53:48;9.02;;;8.13;;
15271;SDS011;7737;51.578;7.268;2024-01-30T00:56:14;8.82;;;7.80;;
15271;SDS011;7737;51.578;7.268;2024-01-30T00:58:44;10.07;;;8.10;;
15271;SDS011;7737;51.578;7.268;2024-01-30T01:01:11;10.02;;;8.73;;
15271;SDS011;7737;51.578;7.268;2024-01-30T01:03:38;11.90;;;8.25;;
15271;SDS011;7737;51.578;7.268;2024-01-30T01:06:05;8.85;;;7.88;;
15271;SDS011;7737;51.578;7.268;2024-01-30T01:08:32;11.05;;;8.60;;
15271;SDS011;7737;51.578;7.268;2024-01-30T01:10:58;10.85;;;8.48;;
15271;SDS011;7737;51.578;7.268;2024-01-30T01:13:25;9.50;;;8.13;;
15271;SDS011;7737;51.578;7.268;2024-01-30T01:15:53;9.02;;;8.13;;
15271;SDS011;7737;51.578;7.268;2024-01-30T01:18:20;12.15;;;8.52;;
15271;SDS011;7737;51.578;7.268;2024-01-30T01:20:46;10.50;;;9.15;;
15271;SDS011;7737;51.578;7.268;2024-01-30T01:23:13;10.50;;;8.57;;
15271;SDS011;7737;51.578;7.268;2024-01-30T01:25:39;11.27;;;9.48;;
15271;SDS011;7737;51.578;7.268;2024-01-30T01:28:06;11.70;;;9.20;;
15271;SDS011;7737;51.578;7.268;2024-01-30T01:30:32;10.45;;;8.95;;
15271;SDS011;7737;51.578;7.268;2024-01-30T01:33:00;10.93;;;9.13;;
15271;SDS011;7737;51.578;7.268;2024-01-30T01:35:27;9.73;;;8.73;;
15271;SDS011;7737;51.578;7.268;2024-01-30T01:37:54;11.35;;;8.70;;
15271;SDS011;7737;51.578;7.268;2024-01-30T01:40:22;11.63;;;9.10;;
15271;SDS011;7737;51.578;7.268;2024-01-30T01:42:49;10.95;;;9.00;;
15271;SDS011;7737;51.578;7.268;2024-01-30T01:45:16;11.43;;;9.07;;
15271;SDS011;7737;51.578;7.268;2024-01-30T01:47:42;11.32;;;9.57;;
15271;SDS011;7737;51.578;7.268;2024-01-30T01:50:12;10.65;;;9.18;;
15271;SDS011;7737;51.578;7.268;2024-01-30T01:52:39;11.45;;;9.15;;
15271;SDS011;7737;51.578;7.268;2024-01-30T01:55:07;11.95;;;9.38;;
15271;SDS011;7737;51.578;7.268;2024-01-30T01:57:34;10.60;;;9.27;;
15271;SDS011;7737;51.578;7.268;2024-01-30T02:00:00;11.18;;;9.32;;
15271;SDS011;7737;51.578;7.268;2024-01-30T02:02:29;10.02;;;8.73;;
15271;SDS011;7737;51.578;7.268;2024-01-30T02:04:56;12.70;;;10.43;;
15271;SDS011;7737;51.578;7.268;2024-01-30T02:07:25;10.95;;;9.75;;
15271;SDS011;7737;51.578;7.268;2024-01-30T02:09:51;10.57;;;9.48;;
15271;SDS011;7737;51.578;7.268;2024-01-30T02:12:17;12.07;;;9.65;;
15271;SDS011;7737;51.578;7.268;2024-01-30T02:14:44;11.20;;;9.45;;
15271;SDS011;7737;51.578;7.268;2024-01-30T02:17:11;12.88;;;9.93;;
15271;SDS011;7737;51.578;7.268;2024-01-30T02:19:37;10.55;;;9.38;;
15271;SDS011;7737;51.578;7.268;2024-01-30T02:22:06;12.57;;;11.10;;
15271;SDS011;7737;51.578;7.268;2024-01-30T02:24:33;11.95;;;9.35;;
15271;SDS011;7737;51.578;7.268;2024-01-30T02:27:00;11.18;;;9.52;;
15271;SDS011;7737;51.578;7.268;2024-01-30T02:29:26;11.90;;;10.00;;
15271;SDS011;7737;51.578;7.268;2024-01-30T02:31:53;11.05;;;9.77;;
15271;SDS011;7737;51.578;7.268;2024-01-30T02:34:19;12.10;;;10.55;;
15271;SDS011;7737;51.578;7.268;2024-01-30T02:36:46;11.73;;;10.25;;
15271;SDS011;7737;51.578;7.268;2024-01-30T02:39:14;13.43;;;10.65;;
15271;SDS011;7737;51.578;7.268;2024-01-30T02:41:40;13.95;;;10.80;;
15271;SDS011;7737;51.578;7.268;2024-01-30T02:44:07;12.88;;;10.68;;
15271;SDS011;7737;51.578;7.268;2024-01-30T02:46:33;13.00;;;10.88;;
15271;SDS011;7737;51.578;7.268;2024-01-30T02:49:00;11.18;;;9.55;;
15271;SDS011;7737;51.578;7.268;2024-01-30T02:51:27;10.73;;;9.55;;
15271;SDS011;7737;51.578;7.268;2024-01-30T02:53:53;11.73;;;9.43;;
15271;SDS011;7737;51.578;7.268;2024-01-30T02:56:21;12.80;;;9.57;;
15271;SDS011;7737;51.578;7.268;2024-01-30T02:58:48;11.40;;;9.88;;
15271;SDS011;7737;51.578;7.268;2024-01-30T03:01:14;13.60;;;10.75;;
15271;SDS011;7737;51.578;7.268;2024-01-30T03:03:40;12.18;;;10.15;;
15271;SDS011;7737;51.578;7.268;2024-01-30T03:06:08;12.15;;;10.45;;
15271;SDS011;7737;51.578;7.268;2024-01-30T03:08:34;12.55;;;10.50;;
15271;SDS011;7737;51.578;7.268;2024-01-30T03:11:01;14.88;;;11.50;;
15271;SDS011;7737;51.578;7.268;2024-01-30T03:13:29;13.85;;;11.20;;
15271;SDS011;7737;51.578;7.268;2024-01-30T03:15:55;13.48;;;12.00;;
15271;SDS011;7737;51.578;7.268;2024-01-30T03:18:22;14.43;;;11.02;;
15271;SDS011;7737;51.578;7.268;2024-01-30T03:20:48;13.85;;;11.32;;
15271;SDS011;7737;51.578;7.268;2024-01-30T03:23:15;12.98;;;11.52;;
15271;SDS011;7737;51.578;7.268;2024-01-30T03:25:42;13.25;;;11.00;;
15271;SDS011;7737;51.578;7.268;2024-01-30T03:28:08;12.40;;;11.02;;
15271;SDS011;7737;51.578;7.268;2024-01-30T03:30:36;13.88;;;10.43;;
15271;SDS011;7737;51.578;7.268;2024-01-30T03:33:02;11.95;;;10.73;;
15271;SDS011;7737;51.578;7.268;2024-01-30T03:35:29;14.88;;;11.65;;
15271;SDS011;7737;51.578;7.268;2024-01-30T03:37:55;12.68;;;11.10;;
15271;SDS011;7737;51.578;7.268;2024-01-30T03:40:22;13.23;;;10.82;;
15271;SDS011;7737;51.578;7.268;2024-01-30T03:42:48;12.18;;;10.85;;
15271;SDS011;7737;51.578;7.268;2024-01-30T03:45:15;12.40;;;11.10;;
15271;SDS011;7737;51.578;7.268;2024-01-30T03:47:45;12.13;;;10.38;;
15271;SDS011;7737;51.578;7.268;2024-01-30T03:50:12;12.15;;;10.57;;
15271;SDS011;7737;51.578;7.268;2024-01-30T03:52:38;14.68;;;10.93;;
15271;SDS011;7737;51.578;7.268;2024-01-30T03:55:05;13.55;;;10.98;;
15271;SDS011;7737;51.578;7.268;2024-01-30T03:57:32;13.27;;;11.40;;
15271;SDS011;7737;51.578;7.268;2024-01-30T03:59:58;13.73;;;11.00;;
15271;SDS011;7737;51.578;7.268;2024-01-30T04:02:25;13.25;;;10.95;;
15271;SDS011;7737;51.578;7.268;2024-01-30T04:04:52;12.95;;;11.35;;
15271;SDS011;7737;51.578;7.268;2024-01-30T04:07:19;14.02;;;11.43;;
15271;SDS011;7737;51.578;7.268;2024-01-30T04:09:45;12.27;;;10.80;;
15271;SDS011;7737;51.578;7.268;2024-01-30T04:12:12;12.45;;;10.88;;
15271;SDS011;7737;51.578;7.268;2024-01-30T04:14:38;14.57;;;11.40;;
15271;SDS011;7737;51.578;7.268;2024-01-30T04:17:05;13.45;;;11.35;;
15271;SDS011;7737;51.578;7.268;2024-01-30T04:19:31;13.70;;;11.38;;
15271;SDS011;7737;51.578;7.268;2024-01-30T04:21:59;15.27;;;11.43;;
15271;SDS011;7737;51.578;7.268;2024-01-30T04:24:26;14.00;;;11.30;;
15271;SDS011;7737;51.578;7.268;2024-01-30T04:26:53;13.57;;;10.60;;
15271;SDS011;7737;51.578;7.268;2024-01-30T04:29:19;14.82;;;10.88;;
15271;SDS011;7737;51.578;7.268;2024-01-30T04:31:47;11.32;;;8.85;;
15271;SDS011;7737;51.578;7.268;2024-01-30T04:34:14;10.70;;;9.60;;
15271;SDS011;7737;51.578;7.268;2024-01-30T04:36:42;13.63;;;10.52;;
15271;SDS011;7737;51.578;7.268;2024-01-30T04:39:11;12.63;;;10.27;;
15271;SDS011;7737;51.578;7.268;2024-01-30T04:41:38;11.70;;;9.63;;
15271;SDS011;7737;51.578;7.268;2024-01-30T04:44:04;10.88;;;9.75;;
15271;SDS011;7737;51.578;7.268;2024-01-30T04:46:31;10.65;;;9.55;;
15271;SDS011;7737;51.578;7.268;2024-01-30T04:48:59;11.68;;;9.45;;
15271;SDS011;7737;51.578;7.268;2024-01-30T04:51:25;10.93;;;8.85;;
15271;SDS011;7737;51.578;7.268;2024-01-30T04:53:52;11.80;;;8.68;;
15271;SDS011;7737;51.578;7.268;2024-01-30T04:56:20;14.75;;;9.80;;
15271;SDS011;7737;51.578;7.268;2024-01-30T04:58:46;10.02;;;8.88;;
15271;SDS011;7737;51.578;7.268;2024-01-30T05:01:14;9.90;;;8.90;;
15271;SDS011;7737;51.578;7.268;2024-01-30T05:03:41;10.43;;;8.60;;
15271;SDS011;7737;51.578;7.268;2024-01-30T05:06:07;10.50;;;8.85;;
15271;SDS011;7737;51.578;7.268;2024-01-30T05:08:34;13.30;;;9.38;;
15271;SDS011;7737;51.578;7.268;2024-01-30T05:11:01;12.93;;;9.02;;
15271;SDS011;7737;51.578;7.268;2024-01-30T05:13:30;12.80;;;9.65;;
15271;SDS011;7737;51.578;7.268;2024-01-30T05:15:56;10.52;;;8.80;;
15271;SDS011;7737;51.578;7.268;2024-01-30T05:18:23;11.77;;;9.40;;
15271;SDS011;7737;51.578;7.268;2024-01-30T05:20:49;13.55;;;9.15;;
15271;SDS011;7737;51.578;7.268;2024-01-30T05:23:16;13.30;;;9.75;;
15271;SDS011;7737;51.578;7.268;2024-01-30T05:25:41;11.48;;;9.65;;
15271;SDS011;7737;51.578;7.268;2024-01-30T05:28:08;13.18;;;10.40;;
15271;SDS011;7737;51.578;7.268;2024-01-30T05:30:36;11.63;;;8.93;;
15271;SDS011;7737;51.578;7.268;2024-01-30T05:33:03;12.05;;;8.48;;
15271;SDS011;7737;51.578;7.268;2024-01-30T05:35:29;11.50;;;7.85;;
15271;SDS011;7737;51.578;7.268;2024-01-30T05:37:56;9.38;;;7.38;;
15271;SDS011;7737;51.578;7.268;2024-01-30T05:40:22;10.35;;;7.68;;
15271;SDS011;7737;51.578;7.268;2024-01-30T05:42:49;9.65;;;7.18;;
15271;SDS011;7737;51.578;7.268;2024-01-30T05:45:15;8.82;;;6.93;;
15271;SDS011;7737;51.578;7.268;2024-01-30T05:47:43;8.73;;;6.88;;
15271;SDS011;7737;51.578;7.268;2024-01-30T05:50:10;8.07;;;6.75;;
15271;SDS011;7737;51.578;7.268;2024-01-30T05:52:36;7.95;;;6.60;;
15271;SDS011;7737;51.578;7.268;2024-01-30T05:55:03;7.70;;;6.90;;
15271;SDS011;7737;51.578;7.268;2024-01-30T05:57:30;8.77;;;6.88;;
15271;SDS011;7737;51.578;7.268;2024-01-30T05:59:57;8.75;;;6.57;;
15271;SDS011;7737;51.578;7.268;2024-01-30T06:02:23;9.55;;;6.68;;
15271;SDS011;7737;51.578;7.268;2024-01-30T06:04:51;8.05;;;6.35;;
15271;SDS011;7737;51.578;7.268;2024-01-30T06:07:19;9.27;;;6.50;;
15271;SDS011;7737;51.578;7.268;2024-01-30T06:09:45;9.40;;;6.55;;
15271;SDS011;7737;51.578;7.268;2024-01-30T06:12:11;8.82;;;6.38;;
15271;SDS011;7737;51.578;7.268;2024-01-30T06:14:38;7.70;;;6.28;;
15271;SDS011;7737;51.578;7.268;2024-01-30T06:17:05;7.72;;;6.40;;
15271;SDS011;7737;51.578;7.268;2024-01-30T06:19:32;7.72;;;6.15;;
15271;SDS011;7737;51.578;7.268;2024-01-30T06:21:59;9.13;;;6.95;;
15271;SDS011;7737;51.578;7.268;2024-01-30T06:24:26;8.75;;;7.00;;
15271;SDS011;7737;51.578;7.268;2024-01-30T06:26:52;7.07;;;6.35;;
15271;SDS011;7737;51.578;7.268;2024-01-30T06:29:19;8.88;;;6.38;;
15271;SDS011;7737;51.578;7.268;2024-01-30T06:31:45;8.25;;;6.38;;
15271;SDS011;7737;51.578;7.268;2024-01-30T06:34:12;7.90;;;6.35;;
15271;SDS011;7737;51.578;7.268;2024-01-30T06:36:39;8.25;;;6.45;;
15271;SDS011;7737;51.578;7.268;2024-01-30T06:39:06;7.53;;;6.60;;
15271;SDS011;7737;51.578;7.268;2024-01-30T06:41:33;8.77;;;7.13;;
15271;SDS011;7737;51.578;7.268;2024-01-30T06:44:01;10.55;;;6.72;;
15271;SDS011;7737;51.578;7.268;2024-01-30T06:46:28;8.27;;;6.15;;
15271;SDS011;7737;51.578;7.268;2024-01-30T06:48:55;7.82;;;6.75;;
15271;SDS011;7737;51.578;7.268;2024-01-30T06:51:21;8.00;;;6.35;;
15271;SDS011;7737;51.578;7.268;2024-01-30T06:53:48;7.25;;;6.18;;
15271;SDS011;7737;51.578;7.268;2024-01-30T06:56:15;8.00;;;7.20;;
15271;SDS011;7737;51.578;7.268;2024-01-30T06:58:45;7.35;;;6.65;;
15271;SDS011;7737;51.578;7.268;2024-01-30T07:01:12;11.05;;;7.00;;
15271;SDS011;7737;51.578;7.268;2024-01-30T07:03:38;11.07;;;7.75;;
15271;SDS011;7737;51.578;7.268;2024-01-30T07:06:05;8.57;;;6.88;;
15271;SDS011;7737;51.578;7.268;2024-01-30T07:08:32;8.45;;;7.05;;
15271;SDS011;7737;51.578;7.268;2024-01-30T07:10:58;9.80;;;7.13;;
15271;SDS011;7737;51.578;7.268;2024-01-30T07:13:27;7.82;;;6.57;;
15271;SDS011;7737;51.578;7.268;2024-01-30T07:15:53;8.27;;;7.35;;
15271;SDS011;7737;51.578;7.268;2024-01-30T07:18:20;8.45;;;7.05;;
15271;SDS011;7737;51.578;7.268;2024-01-30T07:20:46;8.82;;;6.55;;
15271;SDS011;7737;51.578;7.268;2024-01-30T07:23:14;9.25;;;7.38;;
15271;SDS011;7737;51.578;7.268;2024-01-30T07:25:43;8.35;;;7.03;;
15271;SDS011;7737;51.578;7.268;2024-01-30T07:28:09;9.80;;;7.32;;
15271;SDS011;7737;51.578;7.268;2024-01-30T07:30:38;7.72;;;6.93;;
15271;SDS011;7737;51.578;7.268;2024-01-30T07:33:05;10.25;;;7.13;;
15271;SDS011;7737;51.578;7.268;2024-01-30T07:35:31;7.88;;;6.72;;
15271;SDS011;7737;51.578;7.268;2024-01-30T07:37:57;8.50;;;6.97;;
15271;SDS011;7737;51.578;7.268;2024-01-30T07:40:24;8.57;;;6.75;;
15271;SDS011;7737;51.578;7.268;2024-01-30T07:42:50;7.15;;;6.45;;
15271;SDS011;7737;51.578;7.268;2024-01-30T07:45:17;8.10;;;6.75;;
15271;SDS011;7737;51.578;7.268;2024-01-30T07:47:48;8.35;;;6.15;;
15271;SDS011;7737;51.578;7.268;2024-01-30T07:50:15;8.60;;;6.65;;
15271;SDS011;7737;51.578;7.268;2024-01-30T07:52:41;9.02;;;6.68;;
15271;SDS011;7737;51.578;7.268;2024-01-30T07:55:08;9.60;;;6.55;;
15271;SDS011;7737;51.578;7.268;2024-01-30T07:57:34;8.48;;;6.38;;
15271;SDS011;7737;51.578;7.268;2024-01-30T08:00:01;10.52;;;6.78;;
15271;SDS011;7737;51.578;7.268;2024-01-30T08:02:28;7.43;;;6.35;;
15271;SDS011;7737;51.578;7.268;2024-01-30T08:04:56;10.63;;;7.68;;
15271;SDS011;7737;51.578;7.268;2024-01-30T08:07:29;7.68;;;6.63;;
15271;SDS011;7737;51.578;7.268;2024-01-30T08:09:56;10.10;;;6.63;;
15271;SDS011;7737;51.578;7.268;2024-01-30T08:12:22;9.45;;;7.00;;
15271;SDS011;7737;51.578;7.268;2024-01-30T08:14:49;8.00;;;6.93;;
15271;SDS011;7737;51.578;7.268;2024-01-30T08:17:15;10.38;;;6.68;;
15271;SDS011;7737;51.578;7.268;2024-01-30T08:19:42;8.65;;;6.35;;
15271;SDS011;7737;51.578;7.268;2024-01-30T08:22:09;9.55;;;6.32;;
15271;SDS011;7737;51.578;7.268;2024-01-30T08:24:36;10.35;;;7.10;;
15271;SDS011;7737;51.578;7.268;2024-01-30T08:27:02;9.40;;;7.00;;
15271;SDS011;7737;51.578;7.268;2024-01-30T08:29:30;8.90;;;6.80;;
15271;SDS011;7737;51.578;7.268;2024-01-30T08:31:56;9.05;;;7.28;;
15271;SDS011;7737;51.578;7.268;2024-01-30T08:34:24;10.70;;;8.73;;
15271;SDS011;7737;51.578;7.268;2024-01-30T08:36:50;14.45;;;11.30;;
15271;SDS011;7737;51.578;7.268;2024-01-30T08:39:18;22.20;;;16.70;;
15271;SDS011;7737;51.578;7.268;2024-01-30T08:41:45;14.60;;;9.82;;
15271;SDS011;7737;51.578;7.268;2024-01-30T08:44:11;10.93;;;8.38;;
15271;SDS011;7737;51.578;7.268;2024-01-30T08:46:38;9.55;;;7.20;;
15271;SDS011;7737;51.578;7.268;2024-01-30T08:49:04;10.23;;;7.18;;
15271;SDS011;7737;51.578;7.268;2024-01-30T08:51:30;7.18;;;6.45;;
15271;SDS011;7737;51.578;7.268;2024-01-30T08:53:57;8.45;;;6.18;;
15271;SDS011;7737;51.578;7.268;2024-01-30T08:56:25;8.48;;;6.60;;
15271;SDS011;7737;51.578;7.268;2024-01-30T08:58:51;8.90;;;6.53;;
15271;SDS011;7737;51.578;7.268;2024-01-30T09:01:18;7.57;;;6.25;;
15271;SDS011;7737;51.578;7.268;2024-01-30T09:03:45;7.45;;;5.97;;
15271;SDS011;7737;51.578;7.268;2024-01-30T09:06:12;10.30;;;6.25;;
15271;SDS011;7737;51.578;7.268;2024-01-30T09:08:38;11.65;;;8.15;;
15271;SDS011;7737;51.578;7.268;2024-01-30T09:11:08;9.20;;;6.60;;
15271;SDS011;7737;51.578;7.268;2024-01-30T09:13:36;9.57;;;6.75;;
15271;SDS011;7737;51.578;7.268;2024-01-30T09:16:03;7.32;;;6.32;;
15271;SDS011;7737;51.578;7.268;2024-01-30T09:18:30;7.03;;;6.05;;
15271;SDS011;7737;51.578;7.268;2024-01-30T09:20:56;10.18;;;6.95;;
15271;SDS011;7737;51.578;7.268;2024-01-30T09:23:23;7.65;;;6.15;;
15271;SDS011;7737;51.578;7.268;2024-01-30T09:25:50;7.55;;;6.43;;
15271;SDS011;7737;51.578;7.268;2024-01-30T09:28:17;9.25;;;6.63;;
15271;SDS011;7737;51.578;7.268;2024-01-30T09:30:45;8.65;;;5.90;;
15271;SDS011;7737;51.578;7.268;2024-01-30T09:33:11;8.63;;;6.88;;
15271;SDS011;7737;51.578;7.268;2024-01-30T09:35:38;10.30;;;6.60;;
15271;SDS011;7737;51.578;7.268;2024-01-30T09:38:04;8.00;;;6.10;;
15271;SDS011;7737;51.578;7.268;2024-01-30T09:40:31;8.00;;;5.93;;
15271;SDS011;7737;51.578;7.268;2024-01-30T09:42:57;7.05;;;5.90;;
15271;SDS011;7737;51.578;7.268;2024-01-30T09:45:26;11.75;;;6.57;;
15271;SDS011;7737;51.578;7.268;2024-01-30T09:47:54;9.95;;;6.40;;
15271;SDS011;7737;51.578;7.268;2024-01-30T09:50:20;7.05;;;5.40;;
15271;SDS011;7737;51.578;7.268;2024-01-30T09:52:47;10.10;;;6.05;;
15271;SDS011;7737;51.578;7.268;2024-01-30T09:55:15;7.43;;;5.65;;
15271;SDS011;7737;51.578;7.268;2024-01-30T09:57:41;8.75;;;5.57;;
15271;SDS011;7737;51.578;7.268;2024-01-30T10:00:08;6.97;;;6.05;;
15271;SDS011;7737;51.578;7.268;2024-01-30T10:02:36;7.47;;;6.38;;
15271;SDS011;7737;51.578;7.268;2024-01-30T10:05:04;9.05;;;6.85;;
15271;SDS011;7737;51.578;7.268;2024-01-30T10:07:31;8.35;;;6.53;;
15271;SDS011;7737;51.578;7.268;2024-01-30T10:09:59;6.65;;;5.65;;
15271;SDS011;7737;51.578;7.268;2024-01-30T10:12:25;7.68;;;5.30;;
15271;SDS011;7737;51.578;7.268;2024-01-30T10:14:52;7.88;;;5.45;;
15271;SDS011;7737;51.578;7.268;2024-01-30T10:17:19;7.15;;;5.30;;
15271;SDS011;7737;51.578;7.268;2024-01-30T10:19:46;8.02;;;4.57;;
15271;SDS011;7737;51.578;7.268;2024-01-30T10:22:14;6.28;;;4.60;;
15271;SDS011;7737;51.578;7.268;2024-01-30T10:24:41;6.45;;;4.88;;
15271;SDS011;7737;51.578;7.268;2024-01-30T10:27:07;6.25;;;4.90;;
15271;SDS011;7737;51.578;7.268;2024-01-30T10:29:34;6.80;;;4.53;;
15271;SDS011;7737;51.578;7.268;2024-01-30T10:32:01;5.25;;;4.57;;
15271;SDS011;7737;51.578;7.268;2024-01-30T10:34:28;7.97;;;4.68;;
15271;SDS011;7737;51.578;7.268;2024-01-30T10:36:59;6.78;;;4.97;;
15271;SDS011;7737;51.578;7.268;2024-01-30T10:39:29;6.22;;;4.72;;
15271;SDS011;7737;51.578;7.268;2024-01-30T10:41:58;5.22;;;4.55;;
15271;SDS011;7737;51.578;7.268;2024-01-30T10:44:30;5.57;;;4.70;;
15271;SDS011;7737;51.578;7.268;2024-01-30T10:47:05;8.52;;;4.70;;
15271;SDS011;7737;51.578;7.268;2024-01-30T10:49:37;8.45;;;4.75;;
15271;SDS011;7737;51.578;7.268;2024-01-30T10:52:05;8.93;;;4.68;;
15271;SDS011;7737;51.578;7.268;2024-01-30T10:54:35;6.60;;;5.22;;
15271;SDS011;7737;51.578;7.268;2024-01-30T10:57:03;5.75;;;4.88;;
15271;SDS011;7737;51.578;7.268;2024-01-30T10:59:31;6.68;;;4.53;;
15271;SDS011;7737;51.578;7.268;2024-01-30T11:01:59;5.85;;;4.88;;
15271;SDS011;7737;51.578;7.268;2024-01-30T11:04:26;7.00;;;4.75;;
15271;SDS011;7737;51.578;7.268;2024-01-30T11:06:53;5.88;;;4.40;;
15271;SDS011;7737;51.578;7.268;2024-01-30T11:09:20;7.50;;;4.82;;
15271;SDS011;7737;51.578;7.268;2024-01-30T11:11:49;6.60;;;4.88;;
15271;SDS011;7737;51.578;7.268;2024-01-30T11:14:16;6.28;;;4.60;;
15271;SDS011;7737;51.578;7.268;2024-01-30T11:16:43;6.22;;;4.88;;
15271;SDS011;7737;51.578;7.268;2024-01-30T11:19:10;7.35;;;4.40;;
15271;SDS011;7737;51.578;7.268;2024-01-30T11:21:40;10.30;;;5.20;;
15271;SDS011;7737;51.578;7.268;2024-01-30T11:24:07;8.45;;;5.00;;
15271;SDS011;7737;51.578;7.268;2024-01-30T11:26:34;8.02;;;5.05;;
15271;SDS011;7737;51.578;7.268;2024-01-30T11:29:06;6.63;;;4.60;;
15271;SDS011;7737;51.578;7.268;2024-01-30T11:31:33;7.03;;;4.68;;
15271;SDS011;7737;51.578;7.268;2024-01-30T11:33:59;6.75;;;4.88;;
15271;SDS011;7737;51.578;7.268;2024-01-30T11:36:26;9.48;;;5.00;;
15271;SDS011;7737;51.578;7.268;2024-01-30T11:38:54;7.88;;;5.00;;
15271;SDS011;7737;51.578;7.268;2024-01-30T11:41:20;8.70;;;5.18;;
15271;SDS011;7737;51.578;7.268;2024-01-30T11:43:53;7.60;;;4.97;;
15271;SDS011;7737;51.578;7.268;2024-01-30T11:46:21;7.90;;;5.03;;
15271;SDS011;7737;51.578;7.268;2024-01-30T11:48:50;9.43;;;5.15;;
15271;SDS011;7737;51.578;7.268;2024-01-30T11:51:18;7.43;;;5.07;;
15271;SDS011;7737;51.578;7.268;2024-01-30T11:53:49;6.35;;;5.18;;
15271;SDS011;7737;51.578;7.268;2024-01-30T11:56:17;6.65;;;5.22;;
15271;SDS011;7737;51.578;7.268;2024-01-30T11:58:43;8.68;;;5.32;;
15271;SDS011;7737;51.578;7.268;2024-01-30T12:01:10;8.70;;;5.35;;
15271;SDS011;7737;51.578;7.268;2024-01-30T12:03:38;7.75;;;5.65;;
15271;SDS011;7737;51.578;7.268;2024-01-30T12:06:05;8.50;;;5.45;;
15271;SDS011;7737;51.578;7.268;2024-01-30T12:08:31;10.50;;;5.93;;
15271;SDS011;7737;51.578;7.268;2024-01-30T12:10:58;7.70;;;5.47;;
15271;SDS011;7737;51.578;7.268;2024-01-30T12:13:26;10.68;;;5.85;;
15271;SDS011;7737;51.578;7.268;2024-01-30T12:15:53;6.97;;;5.63;;
15271;SDS011;7737;51.578;7.268;2024-01-30T12:18:19;8.10;;;6.00;;
15271;SDS011;7737;51.578;7.268;2024-01-30T12:20:57;9.98;;;6.63;;
15271;SDS011;7737;51.578;7.268;2024-01-30T12:23:24;9.15;;;5.82;;
15271;SDS011;7737;51.578;7.268;2024-01-30T12:25:51;10.10;;;6.70;;
15271;SDS011;7737;51.578;7.268;2024-01-30T12:28:18;11.05;;;6.88;;
15271;SDS011;7737;51.578;7.268;2024-01-30T12:30:45;11.70;;;6.93;;
15271;SDS011;7737;51.578;7.268;2024-01-30T12:33:15;8.10;;;5.80;;
15271;SDS011;7737;51.578;7.268;2024-01-30T12:35:45;8.20;;;5.97;;
15271;SDS011;7737;51.578;7.268;2024-01-30T12:38:13;7.68;;;5.55;;
15271;SDS011;7737;51.578;7.268;2024-01-30T12:40:40;7.05;;;5.80;;
15271;SDS011;7737;51.578;7.268;2024-01-30T12:43:06;8.63;;;6.45;;
15271;SDS011;7737;51.578;7.268;2024-01-30T12:45:33;7.05;;;5.50;;
15271;SDS011;7737;51.578;7.268;2024-01-30T12:48:00;8.02;;;5.55;;
15271;SDS011;7737;51.578;7.268;2024-01-30T12:50:26;8.45;;;5.40;;
15271;SDS011;7737;51.578;7.268;2024-01-30T12:52:52;12.05;;;6.20;;
15271;SDS011;7737;51.578;7.268;2024-01-30T12:55:20;9.60;;;5.80;;
15271;SDS011;7737;51.578;7.268;2024-01-30T12:57:47;7.63;;;6.13;;
15271;SDS011;7737;51.578;7.268;2024-01-30T13:00:13;9.25;;;5.70;;
15271;SDS011;7737;51.578;7.268;2024-01-30T13:02:41;11.10;;;6.72;;
15271;SDS011;7737;51.578;7.268;2024-01-30T13:05:10;13.23;;;5.82;;
15271;SDS011;7737;51.578;7.268;2024-01-30T13:07:36;8.88;;;5.88;;
15271;SDS011;7737;51.578;7.268;2024-01-30T13:10:03;9.55;;;5.60;;
15271;SDS011;7737;51.578;7.268;2024-01-30T13:12:31;10.65;;;6.20;;
15271;SDS011;7737;51.578;7.268;2024-01-30T13:14:58;9.27;;;6.65;;
15271;SDS011;7737;51.578;7.268;2024-01-30T13:17:26;9.05;;;6.22;;
15271;SDS011;7737;51.578;7.268;2024-01-30T13:19:52;10.77;;;7.05;;
15271;SDS011;7737;51.578;7.268;2024-01-30T13:22:19;10.75;;;6.90;;
15271;SDS011;7737;51.578;7.268;2024-01-30T13:24:46;12.13;;;7.43;;
15271;SDS011;7737;51.578;7.268;2024-01-30T13:27:13;11.20;;;6.60;;
15271;SDS011;7737;51.578;7.268;2024-01-30T13:29:41;12.93;;;7.43;;
15271;SDS011;7737;51.578;7.268;2024-01-30T13:32:07;10.60;;;6.18;;
15271;SDS011;7737;51.578;7.268;2024-01-30T13:34:33;10.50;;;7.43;;
15271;SDS011;7737;51.578;7.268;2024-01-30T13:37:00;8.35;;;7.13;;
15271;SDS011;7737;51.578;7.268;2024-01-30T13:39:26;10.98;;;8.20;;
15271;SDS011;7737;51.578;7.268;2024-01-30T13:41:54;12.07;;;8.57;;
15271;SDS011;7737;51.578;7.268;2024-01-30T13:44:20;10.73;;;9.63;;
15271;SDS011;7737;51.578;7.268;2024-01-30T13:46:48;15.60;;;11.60;;
15271;SDS011;7737;51.578;7.268;2024-01-30T13:49:14;13.75;;;11.50;;
15271;SDS011;7737;51.578;7.268;2024-01-30T13:51:41;10.05;;;6.88;;
15271;SDS011;7737;51.578;7.268;2024-01-30T13:54:08;10.13;;;7.65;;
15271;SDS011;7737;51.578;7.268;2024-01-30T13:56:34;14.18;;;8.95;;
15271;SDS011;7737;51.578;7.268;2024-01-30T13:59:01;13.43;;;10.60;;
15271;SDS011;7737;51.578;7.268;2024-01-30T14:01:30;11.98;;;8.02;;
15271;SDS011;7737;51.578;7.268;2024-01-30T14:03:58;10.05;;;8.85;;
15271;SDS011;7737;51.578;7.268;2024-01-30T14:06:25;13.20;;;9.65;;
15271;SDS011;7737;51.578;7.268;2024-01-30T14:08:51;12.77;;;8.07;;
15271;SDS011;7737;51.578;7.268;2024-01-30T14:11:19;14.50;;;11.80;;
15271;SDS011;7737;51.578;7.268;2024-01-30T14:13:46;24.00;;;20.05;;
15271;SDS011;7737;51.578;7.268;2024-01-30T14:16:12;9.52;;;8.18;;
15271;SDS011;7737;51.578;7.268;2024-01-30T14:18:39;15.50;;;12.90;;
15271;SDS011;7737;51.578;7.268;2024-01-30T14:21:07;15.45;;;13.02;;
15271;SDS011;7737;51.578;7.268;2024-01-30T14:23:34;10.38;;;7.80;;
15271;SDS011;7737;51.578;7.268;2024-01-30T14:26:00;14.07;;;10.13;;
15271;SDS011;7737;51.578;7.268;2024-01-30T14:28:27;13.32;;;8.68;;
15271;SDS011;7737;51.578;7.268;2024-01-30T14:30:53;9.50;;;7.85;;
15271;SDS011;7737;51.578;7.268;2024-01-30T14:33:20;7.55;;;6.85;;
15271;SDS011;7737;51.578;7.268;2024-01-30T14:35:46;10.35;;;7.43;;
15271;SDS011;7737;51.578;7.268;2024-01-30T14:38:14;10.18;;;7.32;;
15271;SDS011;7737;51.578;7.268;2024-01-30T14:40:41;9.95;;;7.10;;
15271;SDS011;7737;51.578;7.268;2024-01-30T14:43:07;9.13;;;7.05;;
15271;SDS011;7737;51.578;7.268;2024-01-30T14:45:34;10.05;;;7.38;;
15271;SDS011;7737;51.578;7.268;2024-01-30T14:48:00;14.70;;;10.80;;
15271;SDS011;7737;51.578;7.268;2024-01-30T14:50:27;12.57;;;7.15;;
15271;SDS011;7737;51.578;7.268;2024-01-30T14:52:54;12.00;;;7.20;;